sensor_id;sensor_type;location;lat;lon;timestamp;temperature;humidity
20773;DHT22;10546;50.674;4.616;2023-04-24T00:02:04;9.30;99.90
20773;DHT22;10546;50.674;4.616;2023-04-24T00:04:32;9.30;99.90
20773;DHT22;10546;50.674;4.616;2023-04-24T00:06:57;9.40;99.90
20773;DHT22;10546;50.674;4.616;2023-04-24T00:09:25;9.40;99.90
20773;DHT22;10546;50.674;4.616;2023-04-24T00:11:51;9.30;99.90
20773;DHT22;10546;50.674;4.616;2023-04-24T00:14:17;9.30;99.90
20773;DHT22;10546;50.674;4.616;2023-04-24T00:16:43;9.30;99.90
20773;DHT22;10546;50.674;4.616;2023-04-24T00:19:08;9.40;99.90
20773;DHT22;10546;50.674;4.616;2023-04-24T00:21:34;9.30;99.90
20773;DHT22;10546;50.674;4.616;2023-04-24T00:24:00;9.30;99.90
20773;DHT22;10546;50.674;4.616;2023-04-24T00:26:25;9.40;99.90
20773;DHT22;10546;50.674;4.616;2023-04-24T00:28:51;9.30;99.90
20773;DHT22;10546;50.674;4.616;2023-04-24T00:31:17;9.40;99.90
20773;DHT22;10546;50.674;4.616;2023-04-24T00:33:43;9.40;99.90
20773;DHT22;10546;50.674;4.616;2023-04-24T00:36:08;9.40;99.90
20773;DHT22;10546;50.674;4.616;2023-04-24T00:38:34;9.40;99.90
20773;DHT22;10546;50.674;4.616;2023-04-24T00:40:59;9.40;99.90
20773;DHT22;10546;50.674;4.616;2023-04-24T00:43:25;9.40;99.90
20773;DHT22;10546;50.674;4.616;2023-04-24T00:45:51;9.30;99.90
20773;DHT22;10546;50.674;4.616;2023-04-24T00:48:16;9.40;99.90
20773;DHT22;10546;50.674;4.616;2023-04-24T00:50:43;9.40;99.90
20773;DHT22;10546;50.674;4.616;2023-04-24T00:53:08;9.40;99.90
20773;DHT22;10546;50.674;4.616;2023-04-24T00:55:34;9.30;99.90
20773;DHT22;10546;50.674;4.616;2023-04-24T00:58:02;9.30;99.90
20773;DHT22;10546;50.674;4.616;2023-04-24T01:00:28;9.20;99.90
20773;DHT22;10546;50.674;4.616;2023-04-24T01:02:55;9.20;99.90
20773;DHT22;10546;50.674;4.616;2023-04-24T01:05:22;9.20;99.90
20773;DHT22;10546;50.674;4.616;2023-04-24T01:07:48;9.10;99.90
20773;DHT22;10546;50.674;4.616;2023-04-24T01:10:15;9.20;99.90
20773;DHT22;10546;50.674;4.616;2023-04-24T01:12:44;9.20;99.90
20773;DHT22;10546;50.674;4.616;2023-04-24T01:15:10;9.20;99.90
20773;DHT22;10546;50.674;4.616;2023-04-24T01:17:35;9.10;99.90
20773;DHT22;10546;50.674;4.616;2023-04-24T01:20:03;9.10;99.90
20773;DHT22;10546;50.674;4.616;2023-04-24T01:22:32;9.10;99.90
20773;DHT22;10546;50.674;4.616;2023-04-24T01:24:58;9.10;99.90
20773;DHT22;10546;50.674;4.616;2023-04-24T01:27:24;9.20;99.90
20773;DHT22;10546;50.674;4.616;2023-04-24T01:29:50;9.10;99.90
20773;DHT22;10546;50.674;4.616;2023-04-24T01:32:17;9.10;99.90
20773;DHT22;10546;50.674;4.616;2023-04-24T01:34:44;9.10;99.90
20773;DHT22;10546;50.674;4.616;2023-04-24T01:37:10;9.10;99.90
20773;DHT22;10546;50.674;4.616;2023-04-24T01:39:36;9.20;99.90
20773;DHT22;10546;50.674;4.616;2023-04-24T01:42:02;9.10;99.90
20773;DHT22;10546;50.674;4.616;2023-04-24T01:44:28;9.10;99.90
20773;DHT22;10546;50.674;4.616;2023-04-24T01:46:54;9.00;99.90
20773;DHT22;10546;50.674;4.616;2023-04-24T01:49:20;9.00;99.90
20773;DHT22;10546;50.674;4.616;2023-04-24T01:51:46;8.90;99.90
20773;DHT22;10546;50.674;4.616;2023-04-24T01:54:12;8.90;99.90
20773;DHT22;10546;50.674;4.616;2023-04-24T01:56:41;8.80;99.90
20773;DHT22;10546;50.674;4.616;2023-04-24T01:59:11;8.80;99.90
20773;DHT22;10546;50.674;4.616;2023-04-24T02:01:37;8.70;99.90
20773;DHT22;10546;50.674;4.616;2023-04-24T02:04:04;8.70;99.90
20773;DHT22;10546;50.674;4.616;2023-04-24T02:06:30;8.70;99.90
20773;DHT22;10546;50.674;4.616;2023-04-24T02:09:00;8.60;99.90
20773;DHT22;10546;50.674;4.616;2023-04-24T02:11:26;8.50;99.90
20773;DHT22;10546;50.674;4.616;2023-04-24T02:13:52;8.50;99.90
20773;DHT22;10546;50.674;4.616;2023-04-24T02:16:18;8.50;99.90
20773;DHT22;10546;50.674;4.616;2023-04-24T02:18:44;8.50;99.90
20773;DHT22;10546;50.674;4.616;2023-04-24T02:21:10;8.50;99.90
20773;DHT22;10546;50.674;4.616;2023-04-24T02:23:35;8.40;99.90
20773;DHT22;10546;50.674;4.616;2023-04-24T05:28:10;8.50;99.90
20773;DHT22;10546;50.674;4.616;2023-04-24T05:30:36;8.60;99.90
20773;DHT22;10546;50.674;4.616;2023-04-24T05:33:02;8.50;99.90
20773;DHT22;10546;50.674;4.616;2023-04-24T05:35:28;8.40;99.90
20773;DHT22;10546;50.674;4.616;2023-04-24T05:37:53;8.40;99.90
20773;DHT22;10546;50.674;4.616;2023-04-24T05:40:19;8.40;99.90
20773;DHT22;10546;50.674;4.616;2023-04-24T05:42:45;8.40;99.90
20773;DHT22;10546;50.674;4.616;2023-04-24T05:45:10;8.40;99.90
20773;DHT22;10546;50.674;4.616;2023-04-24T05:47:42;8.40;99.90
20773;DHT22;10546;50.674;4.616;2023-04-24T05:50:09;8.50;99.90
20773;DHT22;10546;50.674;4.616;2023-04-24T05:52:35;8.50;99.90
20773;DHT22;10546;50.674;4.616;2023-04-24T05:55:00;8.40;99.90
20773;DHT22;10546;50.674;4.616;2023-04-24T05:57:26;8.50;99.90
20773;DHT22;10546;50.674;4.616;2023-04-24T05:59:52;8.60;99.90
20773;DHT22;10546;50.674;4.616;2023-04-24T06:02:17;8.60;99.90
20773;DHT22;10546;50.674;4.616;2023-04-24T06:04:43;8.50;99.90
20773;DHT22;10546;50.674;4.616;2023-04-24T06:07:11;8.60;99.90
20773;DHT22;10546;50.674;4.616;2023-04-24T06:09:36;8.60;99.90
20773;DHT22;10546;50.674;4.616;2023-04-24T06:12:02;8.60;99.90
20773;DHT22;10546;50.674;4.616;2023-04-24T06:14:28;8.50;99.90
20773;DHT22;10546;50.674;4.616;2023-04-24T06:16:54;8.50;99.90
20773;DHT22;10546;50.674;4.616;2023-04-24T06:19:19;8.50;99.90
20773;DHT22;10546;50.674;4.616;2023-04-24T06:21:45;8.50;99.90
20773;DHT22;10546;50.674;4.616;2023-04-24T06:24:14;8.40;99.90
20773;DHT22;10546;50.674;4.616;2023-04-24T06:26:39;8.40;99.90
20773;DHT22;10546;50.674;4.616;2023-04-24T06:29:06;8.50;99.90
20773;DHT22;10546;50.674;4.616;2023-04-24T06:31:35;8.50;99.90
20773;DHT22;10546;50.674;4.616;2023-04-24T06:34:03;8.40;99.90
20773;DHT22;10546;50.674;4.616;2023-04-24T06:36:29;8.50;99.90
20773;DHT22;10546;50.674;4.616;2023-04-24T06:38:56;8.40;99.90
20773;DHT22;10546;50.674;4.616;2023-04-24T06:41:22;8.40;99.90
20773;DHT22;10546;50.674;4.616;2023-04-24T06:43:48;8.30;99.90
20773;DHT22;10546;50.674;4.616;2023-04-24T06:46:13;8.20;99.90
20773;DHT22;10546;50.674;4.616;2023-04-24T06:48:39;8.30;99.90
20773;DHT22;10546;50.674;4.616;2023-04-24T06:51:05;8.20;99.90
20773;DHT22;10546;50.674;4.616;2023-04-24T06:53:31;8.30;99.90
20773;DHT22;10546;50.674;4.616;2023-04-24T06:55:57;8.30;99.90
20773;DHT22;10546;50.674;4.616;2023-04-24T06:58:23;8.30;99.90
20773;DHT22;10546;50.674;4.616;2023-04-24T07:00:50;8.20;99.90
20773;DHT22;10546;50.674;4.616;2023-04-24T07:03:16;8.30;99.90
20773;DHT22;10546;50.674;4.616;2023-04-24T07:05:42;8.50;99.90
20773;DHT22;10546;50.674;4.616;2023-04-24T07:08:08;8.50;99.90
20773;DHT22;10546;50.674;4.616;2023-04-24T07:10:36;8.60;99.90
20773;DHT22;10546;50.674;4.616;2023-04-24T07:13:02;8.60;99.90
20773;DHT22;10546;50.674;4.616;2023-04-24T07:15:28;8.70;99.90
20773;DHT22;10546;50.674;4.616;2023-04-24T07:17:53;8.70;99.90
20773;DHT22;10546;50.674;4.616;2023-04-24T07:20:19;8.80;99.90
20773;DHT22;10546;50.674;4.616;2023-04-24T07:22:45;8.90;99.90
20773;DHT22;10546;50.674;4.616;2023-04-24T07:25:10;8.90;99.90
20773;DHT22;10546;50.674;4.616;2023-04-24T07:27:36;9.10;99.90
20773;DHT22;10546;50.674;4.616;2023-04-24T07:30:04;9.10;99.90
20773;DHT22;10546;50.674;4.616;2023-04-24T07:32:30;9.20;99.90
20773;DHT22;10546;50.674;4.616;2023-04-24T07:34:55;9.20;99.90
20773;DHT22;10546;50.674;4.616;2023-04-24T07:37:22;9.10;99.90
20773;DHT22;10546;50.674;4.616;2023-04-24T07:39:47;9.10;99.90
20773;DHT22;10546;50.674;4.616;2023-04-24T07:42:13;9.20;99.90
20773;DHT22;10546;50.674;4.616;2023-04-24T07:44:39;9.30;99.90
20773;DHT22;10546;50.674;4.616;2023-04-24T07:47:04;9.30;99.90
20773;DHT22;10546;50.674;4.616;2023-04-24T07:49:30;9.30;99.90
20773;DHT22;10546;50.674;4.616;2023-04-24T07:51:56;9.30;99.90
20773;DHT22;10546;50.674;4.616;2023-04-24T07:54:22;9.20;99.90
20773;DHT22;10546;50.674;4.616;2023-04-24T07:56:48;9.30;99.90
20773;DHT22;10546;50.674;4.616;2023-04-24T07:59:13;9.30;99.90
20773;DHT22;10546;50.674;4.616;2023-04-24T08:01:39;9.20;99.90
20773;DHT22;10546;50.674;4.616;2023-04-24T08:04:05;9.30;99.90
20773;DHT22;10546;50.674;4.616;2023-04-24T08:06:31;9.30;99.90
20773;DHT22;10546;50.674;4.616;2023-04-24T08:08:57;9.30;99.90
20773;DHT22;10546;50.674;4.616;2023-04-24T08:11:24;9.30;99.90
20773;DHT22;10546;50.674;4.616;2023-04-24T08:13:50;9.30;99.90
20773;DHT22;10546;50.674;4.616;2023-04-24T08:16:16;9.30;99.90
20773;DHT22;10546;50.674;4.616;2023-04-24T08:18:41;9.80;99.90
20773;DHT22;10546;50.674;4.616;2023-04-24T08:21:07;10.00;99.90
20773;DHT22;10546;50.674;4.616;2023-04-24T08:23:33;10.30;99.90
20773;DHT22;10546;50.674;4.616;2023-04-24T08:25:58;10.30;99.90
20773;DHT22;10546;50.674;4.616;2023-04-24T08:28:25;9.90;99.90
20773;DHT22;10546;50.674;4.616;2023-04-24T08:30:51;9.80;99.90
20773;DHT22;10546;50.674;4.616;2023-04-24T08:33:21;9.70;99.90
20773;DHT22;10546;50.674;4.616;2023-04-24T08:35:47;9.60;99.90
20773;DHT22;10546;50.674;4.616;2023-04-24T08:38:13;9.50;99.90
20773;DHT22;10546;50.674;4.616;2023-04-24T08:40:39;9.60;99.90
20773;DHT22;10546;50.674;4.616;2023-04-24T08:43:05;9.60;99.90
20773;DHT22;10546;50.674;4.616;2023-04-24T08:45:32;10.30;99.90
20773;DHT22;10546;50.674;4.616;2023-04-24T08:47:58;11.30;99.90
20773;DHT22;10546;50.674;4.616;2023-04-24T08:50:26;12.50;99.90
20773;DHT22;10546;50.674;4.616;2023-04-24T08:52:52;12.70;99.90
20773;DHT22;10546;50.674;4.616;2023-04-24T08:55:19;12.20;99.90
20773;DHT22;10546;50.674;4.616;2023-04-24T08:57:50;12.30;99.90
20773;DHT22;10546;50.674;4.616;2023-04-24T09:00:17;12.80;99.90
20773;DHT22;10546;50.674;4.616;2023-04-24T09:02:43;13.70;99.90
20773;DHT22;10546;50.674;4.616;2023-04-24T09:05:10;14.10;99.90
20773;DHT22;10546;50.674;4.616;2023-04-24T09:07:39;13.50;99.90
20773;DHT22;10546;50.674;4.616;2023-04-24T09:10:07;13.30;99.90
20773;DHT22;10546;50.674;4.616;2023-04-24T09:12:34;13.70;99.90
20773;DHT22;10546;50.674;4.616;2023-04-24T09:15:01;13.50;99.90
20773;DHT22;10546;50.674;4.616;2023-04-24T09:17:30;13.00;99.90
20773;DHT22;10546;50.674;4.616;2023-04-24T09:19:55;13.00;99.90
20773;DHT22;10546;50.674;4.616;2023-04-24T09:22:21;12.90;99.90
20773;DHT22;10546;50.674;4.616;2023-04-24T09:24:47;12.70;99.90
20773;DHT22;10546;50.674;4.616;2023-04-24T09:27:13;12.40;99.90
20773;DHT22;10546;50.674;4.616;2023-04-24T09:30:02;13.10;99.90
20773;DHT22;10546;50.674;4.616;2023-04-24T09:32:28;13.90;99.90
20773;DHT22;10546;50.674;4.616;2023-04-24T09:35:13;14.30;99.90
20773;DHT22;10546;50.674;4.616;2023-04-24T09:37:41;13.60;99.90
20773;DHT22;10546;50.674;4.616;2023-04-24T09:40:19;12.70;99.90
20773;DHT22;10546;50.674;4.616;2023-04-24T09:42:51;12.10;99.90
20773;DHT22;10546;50.674;4.616;2023-04-24T09:45:17;11.90;99.90
20773;DHT22;10546;50.674;4.616;2023-04-24T09:47:43;12.00;99.90
20773;DHT22;10546;50.674;4.616;2023-04-24T09:50:10;12.60;99.90
20773;DHT22;10546;50.674;4.616;2023-04-24T09:52:40;12.80;99.90
20773;DHT22;10546;50.674;4.616;2023-04-24T09:55:11;13.20;99.90
20773;DHT22;10546;50.674;4.616;2023-04-24T09:57:53;13.30;99.90
20773;DHT22;10546;50.674;4.616;2023-04-24T10:00:27;13.60;99.90
20773;DHT22;10546;50.674;4.616;2023-04-24T10:03:04;13.20;99.90
20773;DHT22;10546;50.674;4.616;2023-04-24T10:05:31;12.60;99.90
20773;DHT22;10546;50.674;4.616;2023-04-24T10:08:09;12.60;99.90
20773;DHT22;10546;50.674;4.616;2023-04-24T10:10:39;14.30;99.90
20773;DHT22;10546;50.674;4.616;2023-04-24T10:13:07;15.30;99.90
20773;DHT22;10546;50.674;4.616;2023-04-24T10:15:34;16.40;99.90
20773;DHT22;10546;50.674;4.616;2023-04-24T10:18:00;16.90;99.90
20773;DHT22;10546;50.674;4.616;2023-04-24T10:20:29;16.20;99.90
20773;DHT22;10546;50.674;4.616;2023-04-24T10:22:56;15.50;99.90
20773;DHT22;10546;50.674;4.616;2023-04-24T10:25:30;15.20;99.90
20773;DHT22;10546;50.674;4.616;2023-04-24T10:27:57;14.40;99.90
20773;DHT22;10546;50.674;4.616;2023-04-24T10:30:26;14.30;99.90
20773;DHT22;10546;50.674;4.616;2023-04-24T10:32:52;14.00;99.90
20773;DHT22;10546;50.674;4.616;2023-04-24T10:35:18;13.50;99.90
20773;DHT22;10546;50.674;4.616;2023-04-24T10:37:55;13.10;99.90
20773;DHT22;10546;50.674;4.616;2023-04-24T10:40:31;12.90;99.90
20773;DHT22;10546;50.674;4.616;2023-04-24T10:42:58;13.30;99.90
20773;DHT22;10546;50.674;4.616;2023-04-24T10:45:24;13.20;99.90
20773;DHT22;10546;50.674;4.616;2023-04-24T10:50:19;12.90;99.90
20773;DHT22;10546;50.674;4.616;2023-04-24T10:52:49;12.90;99.90
20773;DHT22;10546;50.674;4.616;2023-04-24T10:55:49;13.00;99.90
20773;DHT22;10546;50.674;4.616;2023-04-24T10:58:16;12.90;99.90
20773;DHT22;10546;50.674;4.616;2023-04-24T11:00:43;13.40;99.90
20773;DHT22;10546;50.674;4.616;2023-04-24T11:03:29;13.60;99.90
20773;DHT22;10546;50.674;4.616;2023-04-24T11:08:26;14.00;99.90
20773;DHT22;10546;50.674;4.616;2023-04-24T11:11:03;13.80;99.90
20773;DHT22;10546;50.674;4.616;2023-04-24T11:19:36;12.90;99.90
20773;DHT22;10546;50.674;4.616;2023-04-24T11:21:42;12.60;99.90
20773;DHT22;10546;50.674;4.616;2023-04-24T11:26:59;12.60;99.90
20773;DHT22;10546;50.674;4.616;2023-04-24T11:29:48;12.70;99.90
20773;DHT22;10546;50.674;4.616;2023-04-24T11:34:52;13.00;99.90
20773;DHT22;10546;50.674;4.616;2023-04-24T11:37:19;13.30;99.90
20773;DHT22;10546;50.674;4.616;2023-04-24T11:39:44;13.60;99.90
20773;DHT22;10546;50.674;4.616;2023-04-24T11:42:10;13.40;99.90
20773;DHT22;10546;50.674;4.616;2023-04-24T11:44:36;13.20;99.90
20773;DHT22;10546;50.674;4.616;2023-04-24T11:47:05;12.90;99.90
20773;DHT22;10546;50.674;4.616;2023-04-24T11:49:32;12.80;99.90
20773;DHT22;10546;50.674;4.616;2023-04-24T11:51:59;12.70;99.90
20773;DHT22;10546;50.674;4.616;2023-04-24T11:54:26;12.40;99.90
20773;DHT22;10546;50.674;4.616;2023-04-24T11:56:51;12.00;99.90
20773;DHT22;10546;50.674;4.616;2023-04-24T11:59:17;12.00;99.90
20773;DHT22;10546;50.674;4.616;2023-04-24T12:01:47;12.10;99.90
20773;DHT22;10546;50.674;4.616;2023-04-24T12:04:14;12.30;99.90
20773;DHT22;10546;50.674;4.616;2023-04-24T12:06:40;12.60;99.90
20773;DHT22;10546;50.674;4.616;2023-04-24T12:09:05;13.10;99.90
20773;DHT22;10546;50.674;4.616;2023-04-24T12:11:32;13.60;99.90
20773;DHT22;10546;50.674;4.616;2023-04-24T12:13:57;14.10;99.90
20773;DHT22;10546;50.674;4.616;2023-04-24T12:16:26;14.40;99.90
20773;DHT22;10546;50.674;4.616;2023-04-24T12:18:51;14.80;99.90
20773;DHT22;10546;50.674;4.616;2023-04-24T12:21:19;14.80;99.90
20773;DHT22;10546;50.674;4.616;2023-04-24T12:23:46;15.20;99.90
20773;DHT22;10546;50.674;4.616;2023-04-24T12:26:19;15.50;99.90
20773;DHT22;10546;50.674;4.616;2023-04-24T12:28:48;15.30;99.90
20773;DHT22;10546;50.674;4.616;2023-04-24T12:31:17;15.00;99.90
20773;DHT22;10546;50.674;4.616;2023-04-24T12:33:43;14.80;99.90
20773;DHT22;10546;50.674;4.616;2023-04-24T12:36:12;14.90;99.90
20773;DHT22;10546;50.674;4.616;2023-04-24T12:38:38;14.90;99.90
20773;DHT22;10546;50.674;4.616;2023-04-24T12:41:11;15.20;99.90
20773;DHT22;10546;50.674;4.616;2023-04-24T12:43:37;15.40;99.90
20773;DHT22;10546;50.674;4.616;2023-04-24T12:46:04;15.30;99.90
20773;DHT22;10546;50.674;4.616;2023-04-24T12:48:30;15.40;99.90
20773;DHT22;10546;50.674;4.616;2023-04-24T12:50:59;15.30;99.90
20773;DHT22;10546;50.674;4.616;2023-04-24T12:53:28;15.10;99.90
20773;DHT22;10546;50.674;4.616;2023-04-24T12:55:57;15.10;99.90
20773;DHT22;10546;50.674;4.616;2023-04-24T12:58:23;15.00;99.90
20773;DHT22;10546;50.674;4.616;2023-04-24T13:00:48;14.90;99.90
20773;DHT22;10546;50.674;4.616;2023-04-24T13:03:14;14.90;99.90
20773;DHT22;10546;50.674;4.616;2023-04-24T13:05:41;14.60;99.90
20773;DHT22;10546;50.674;4.616;2023-04-24T13:08:07;14.40;99.90
20773;DHT22;10546;50.674;4.616;2023-04-24T13:10:33;14.20;99.90
20773;DHT22;10546;50.674;4.616;2023-04-24T13:12:59;14.10;99.90
20773;DHT22;10546;50.674;4.616;2023-04-24T13:15:25;14.30;99.90
20773;DHT22;10546;50.674;4.616;2023-04-24T13:17:50;14.00;99.90
20773;DHT22;10546;50.674;4.616;2023-04-24T13:20:17;13.80;99.90
20773;DHT22;10546;50.674;4.616;2023-04-24T13:22:43;13.70;99.90
20773;DHT22;10546;50.674;4.616;2023-04-24T13:25:09;13.40;99.90
20773;DHT22;10546;50.674;4.616;2023-04-24T13:27:37;13.40;99.90
20773;DHT22;10546;50.674;4.616;2023-04-24T13:30:03;13.20;99.90
20773;DHT22;10546;50.674;4.616;2023-04-24T13:32:29;13.00;99.90
20773;DHT22;10546;50.674;4.616;2023-04-24T13:34:55;13.20;99.90
20773;DHT22;10546;50.674;4.616;2023-04-24T13:37:21;13.40;99.90
20773;DHT22;10546;50.674;4.616;2023-04-24T13:39:48;13.40;99.90
20773;DHT22;10546;50.674;4.616;2023-04-24T13:42:13;13.60;99.90
20773;DHT22;10546;50.674;4.616;2023-04-24T13:44:40;13.60;99.90
20773;DHT22;10546;50.674;4.616;2023-04-24T13:47:05;13.40;99.90
20773;DHT22;10546;50.674;4.616;2023-04-24T13:49:31;13.40;99.90
20773;DHT22;10546;50.674;4.616;2023-04-24T13:51:57;13.10;99.90
20773;DHT22;10546;50.674;4.616;2023-04-24T13:54:23;13.00;99.90
20773;DHT22;10546;50.674;4.616;2023-04-24T13:56:51;12.70;99.90
20773;DHT22;10546;50.674;4.616;2023-04-24T13:59:17;12.60;99.90
20773;DHT22;10546;50.674;4.616;2023-04-24T14:01:42;12.70;99.90
20773;DHT22;10546;50.674;4.616;2023-04-24T14:04:10;12.40;99.90
20773;DHT22;10546;50.674;4.616;2023-04-24T14:06:36;12.40;99.90
20773;DHT22;10546;50.674;4.616;2023-04-24T14:09:02;12.40;99.90
20773;DHT22;10546;50.674;4.616;2023-04-24T14:11:28;12.40;99.90
20773;DHT22;10546;50.674;4.616;2023-04-24T14:13:54;12.50;99.90
20773;DHT22;10546;50.674;4.616;2023-04-24T14:16:22;12.50;99.90
20773;DHT22;10546;50.674;4.616;2023-04-24T14:18:47;12.40;99.90
20773;DHT22;10546;50.674;4.616;2023-04-24T14:21:13;12.30;99.90
20773;DHT22;10546;50.674;4.616;2023-04-24T14:23:38;12.30;99.90
20773;DHT22;10546;50.674;4.616;2023-04-24T14:26:04;12.20;99.90
20773;DHT22;10546;50.674;4.616;2023-04-24T14:28:30;12.20;99.90
20773;DHT22;10546;50.674;4.616;2023-04-24T14:30:55;12.30;99.90
20773;DHT22;10546;50.674;4.616;2023-04-24T14:33:21;12.20;99.90
20773;DHT22;10546;50.674;4.616;2023-04-24T14:35:47;12.20;99.90
20773;DHT22;10546;50.674;4.616;2023-04-24T14:38:13;12.10;99.90
20773;DHT22;10546;50.674;4.616;2023-04-24T14:40:40;12.00;99.90
20773;DHT22;10546;50.674;4.616;2023-04-24T14:43:06;11.80;99.90
20773;DHT22;10546;50.674;4.616;2023-04-24T14:45:32;11.90;99.90
20773;DHT22;10546;50.674;4.616;2023-04-24T14:47:58;12.10;99.90
20773;DHT22;10546;50.674;4.616;2023-04-24T14:50:23;12.00;99.90
20773;DHT22;10546;50.674;4.616;2023-04-24T14:52:53;11.90;99.90
20773;DHT22;10546;50.674;4.616;2023-04-24T14:55:19;12.00;99.90
20773;DHT22;10546;50.674;4.616;2023-04-24T14:57:45;12.00;99.90
20773;DHT22;10546;50.674;4.616;2023-04-24T15:00:11;11.80;99.90
20773;DHT22;10546;50.674;4.616;2023-04-24T15:02:37;11.50;99.90
20773;DHT22;10546;50.674;4.616;2023-04-24T15:05:07;11.50;99.90
20773;DHT22;10546;50.674;4.616;2023-04-24T15:07:33;11.50;99.90
20773;DHT22;10546;50.674;4.616;2023-04-24T15:10:00;11.60;99.90
20773;DHT22;10546;50.674;4.616;2023-04-24T15:12:26;11.60;99.90
20773;DHT22;10546;50.674;4.616;2023-04-24T15:14:54;12.00;99.90
20773;DHT22;10546;50.674;4.616;2023-04-24T15:17:20;12.40;99.90
20773;DHT22;10546;50.674;4.616;2023-04-24T15:19:45;12.60;99.90
20773;DHT22;10546;50.674;4.616;2023-04-24T15:22:11;13.00;99.90
20773;DHT22;10546;50.674;4.616;2023-04-24T15:24:37;13.10;99.90
20773;DHT22;10546;50.674;4.616;2023-04-24T15:27:02;13.30;99.90
20773;DHT22;10546;50.674;4.616;2023-04-24T15:29:28;13.20;99.90
20773;DHT22;10546;50.674;4.616;2023-04-24T15:31:54;13.00;99.90
20773;DHT22;10546;50.674;4.616;2023-04-24T15:34:20;13.00;99.90
20773;DHT22;10546;50.674;4.616;2023-04-24T15:36:46;12.70;99.90
20773;DHT22;10546;50.674;4.616;2023-04-24T15:39:11;12.70;99.90
20773;DHT22;10546;50.674;4.616;2023-04-24T15:41:37;12.70;99.90
20773;DHT22;10546;50.674;4.616;2023-04-24T15:44:03;12.80;99.90
20773;DHT22;10546;50.674;4.616;2023-04-24T15:46:29;12.70;99.90
20773;DHT22;10546;50.674;4.616;2023-04-24T15:48:54;12.80;99.90
20773;DHT22;10546;50.674;4.616;2023-04-24T15:51:20;13.00;99.90
20773;DHT22;10546;50.674;4.616;2023-04-24T15:53:46;13.10;99.90
20773;DHT22;10546;50.674;4.616;2023-04-24T15:56:12;13.00;99.90
20773;DHT22;10546;50.674;4.616;2023-04-24T15:58:38;12.80;99.90
20773;DHT22;10546;50.674;4.616;2023-04-24T16:01:04;12.70;99.90
20773;DHT22;10546;50.674;4.616;2023-04-24T16:03:29;12.60;99.90
20773;DHT22;10546;50.674;4.616;2023-04-24T16:05:55;12.50;99.90
20773;DHT22;10546;50.674;4.616;2023-04-24T16:08:21;12.40;99.90
20773;DHT22;10546;50.674;4.616;2023-04-24T16:10:47;12.60;99.90
20773;DHT22;10546;50.674;4.616;2023-04-24T16:13:14;12.70;99.90
20773;DHT22;10546;50.674;4.616;2023-04-24T16:15:40;12.70;99.90
20773;DHT22;10546;50.674;4.616;2023-04-24T16:18:06;12.80;99.90
20773;DHT22;10546;50.674;4.616;2023-04-24T16:20:32;12.70;99.90
20773;DHT22;10546;50.674;4.616;2023-04-24T16:22:57;12.90;99.90
20773;DHT22;10546;50.674;4.616;2023-04-24T16:25:23;12.70;99.90
20773;DHT22;10546;50.674;4.616;2023-04-24T16:27:49;12.60;99.90
20773;DHT22;10546;50.674;4.616;2023-04-24T16:30:17;12.50;99.90
20773;DHT22;10546;50.674;4.616;2023-04-24T16:32:43;12.50;99.90
20773;DHT22;10546;50.674;4.616;2023-04-24T16:35:09;12.50;99.90
20773;DHT22;10546;50.674;4.616;2023-04-24T16:37:34;12.40;99.90
20773;DHT22;10546;50.674;4.616;2023-04-24T16:40:00;12.30;99.90
20773;DHT22;10546;50.674;4.616;2023-04-24T16:42:26;12.10;99.90
20773;DHT22;10546;50.674;4.616;2023-04-24T16:44:51;12.00;99.90
20773;DHT22;10546;50.674;4.616;2023-04-24T16:47:18;12.00;99.90
20773;DHT22;10546;50.674;4.616;2023-04-24T16:49:43;12.20;99.90
20773;DHT22;10546;50.674;4.616;2023-04-24T16:52:10;12.50;99.90
20773;DHT22;10546;50.674;4.616;2023-04-24T16:54:36;12.70;99.90
20773;DHT22;10546;50.674;4.616;2023-04-24T16:57:03;13.00;99.90
20773;DHT22;10546;50.674;4.616;2023-04-24T16:59:32;12.80;99.90
20773;DHT22;10546;50.674;4.616;2023-04-24T17:01:59;13.00;99.90
20773;DHT22;10546;50.674;4.616;2023-04-24T17:04:25;13.10;99.90
20773;DHT22;10546;50.674;4.616;2023-04-24T17:06:50;13.00;99.90
20773;DHT22;10546;50.674;4.616;2023-04-24T17:09:16;13.00;99.90
20773;DHT22;10546;50.674;4.616;2023-04-24T17:11:42;13.10;99.90
20773;DHT22;10546;50.674;4.616;2023-04-24T17:14:08;13.30;99.90
20773;DHT22;10546;50.674;4.616;2023-04-24T17:16:34;13.30;99.90
20773;DHT22;10546;50.674;4.616;2023-04-24T17:19:01;13.50;99.90
20773;DHT22;10546;50.674;4.616;2023-04-24T17:21:26;13.50;99.90
20773;DHT22;10546;50.674;4.616;2023-04-24T17:23:53;13.40;99.90
20773;DHT22;10546;50.674;4.616;2023-04-24T17:26:18;13.40;99.90
20773;DHT22;10546;50.674;4.616;2023-04-24T17:28:44;13.50;99.90
20773;DHT22;10546;50.674;4.616;2023-04-24T17:31:10;13.40;99.90
20773;DHT22;10546;50.674;4.616;2023-04-24T17:33:36;13.30;99.90
20773;DHT22;10546;50.674;4.616;2023-04-24T17:36:02;13.20;99.90
20773;DHT22;10546;50.674;4.616;2023-04-24T17:38:28;13.10;99.90
20773;DHT22;10546;50.674;4.616;2023-04-24T17:40:54;13.00;99.90
20773;DHT22;10546;50.674;4.616;2023-04-24T17:43:20;13.10;99.90
20773;DHT22;10546;50.674;4.616;2023-04-24T17:45:47;12.80;99.90
20773;DHT22;10546;50.674;4.616;2023-04-24T17:48:13;12.80;99.90
20773;DHT22;10546;50.674;4.616;2023-04-24T17:50:40;12.90;99.90
20773;DHT22;10546;50.674;4.616;2023-04-24T17:53:06;13.00;99.90
20773;DHT22;10546;50.674;4.616;2023-04-24T17:55:32;12.90;99.90
20773;DHT22;10546;50.674;4.616;2023-04-24T17:58:02;12.90;99.90
20773;DHT22;10546;50.674;4.616;2023-04-24T18:00:29;12.90;99.90
20773;DHT22;10546;50.674;4.616;2023-04-24T18:02:55;13.00;99.90
20773;DHT22;10546;50.674;4.616;2023-04-24T18:05:29;12.80;99.90
20773;DHT22;10546;50.674;4.616;2023-04-24T18:07:56;12.70;99.90
20773;DHT22;10546;50.674;4.616;2023-04-24T18:10:23;12.60;99.90
20773;DHT22;10546;50.674;4.616;2023-04-24T18:12:49;12.60;99.90
20773;DHT22;10546;50.674;4.616;2023-04-24T18:15:15;12.60;99.90
20773;DHT22;10546;50.674;4.616;2023-04-24T18:17:41;12.60;99.90
20773;DHT22;10546;50.674;4.616;2023-04-24T18:20:07;12.70;99.90
20773;DHT22;10546;50.674;4.616;2023-04-24T18:22:33;12.50;99.90
20773;DHT22;10546;50.674;4.616;2023-04-24T18:24:58;12.30;99.90
20773;DHT22;10546;50.674;4.616;2023-04-24T18:27:24;12.50;99.90
20773;DHT22;10546;50.674;4.616;2023-04-24T18:29:50;12.40;99.90
20773;DHT22;10546;50.674;4.616;2023-04-24T18:32:16;12.30;99.90
20773;DHT22;10546;50.674;4.616;2023-04-24T18:34:42;12.30;99.90
20773;DHT22;10546;50.674;4.616;2023-04-24T18:37:08;12.20;99.90
20773;DHT22;10546;50.674;4.616;2023-04-24T18:39:33;12.30;99.90
20773;DHT22;10546;50.674;4.616;2023-04-24T18:41:59;12.20;99.90
20773;DHT22;10546;50.674;4.616;2023-04-24T18:44:25;12.20;99.90
20773;DHT22;10546;50.674;4.616;2023-04-24T18:46:51;12.10;99.90
20773;DHT22;10546;50.674;4.616;2023-04-24T18:49:17;12.10;99.90
20773;DHT22;10546;50.674;4.616;2023-04-24T18:51:42;12.10;99.90
20773;DHT22;10546;50.674;4.616;2023-04-24T18:54:09;12.00;99.90